Time;durP1;ratioP1;P1;durP2;ratioP2;P2;SDS_P1;SDS_P2;PMS_P1;PMS_P2;Temp;Humidity;BMP_temperature;BMP_pressure;BME280_temperature;BME280_humidity;BME280_pressure;Samples;Min_cycle;Max_cycle;Signal;HPM_P1;HPM_P2
2023/09/29 00:02:10;;;;;;;;;;;23.60;55.50;;;;;;5092737;28;19931;-62
2023/09/29 00:04:37;;;;;;;;;;;23.60;55.50;;;;;;5092595;28;20392;-62
2023/09/29 00:07:07;;;;;;;;;;;23.60;55.50;;;;;;5092718;28;20453;-62
2023/09/29 00:09:34;;;;;;;;;;;23.60;55.60;;;;;;5093298;28;20336;-62
2023/09/29 00:12:01;;;;;;;;;;;23.60;55.60;;;;;;5095615;28;20035;-62
2023/09/29 00:14:28;;;;;;;;;;;23.60;55.60;;;;;;5096982;28;19975;-62
2023/09/29 00:16:55;;;;;;;;;;;23.60;55.60;;;;;;5096107;28;19924;-62
2023/09/29 00:19:22;;;;;;;;;;;23.60;55.60;;;;;;5097020;28;20407;-62
2023/09/29 00:21:49;;;;;;;;;;;23.60;55.60;;;;;;5096950;28;19924;-62
2023/09/29 00:24:16;;;;;;;;;;;23.60;55.60;;;;;;5096904;28;20391;-62
2023/09/29 00:26:44;;;;;;;;;;;23.60;55.60;;;;;;5096599;28;19950;-62
2023/09/29 00:29:11;;;;;;;;;;;23.60;55.70;;;;;;5096757;28;19928;-62
2023/09/29 00:31:38;;;;;;;;;;;23.60;55.60;;;;;;5096472;28;19969;-62
2023/09/29 00:34:06;;;;;;;;;;;23.60;55.60;;;;;;5096298;28;19972;-62
2023/09/29 00:36:33;;;;;;;;;;;23.60;55.60;;;;;;5095109;28;19924;-62
2023/09/29 00:39:00;;;;;;;;;;;23.60;55.60;;;;;;5096854;28;19970;-62
2023/09/29 00:41:27;;;;;;;;;;;23.60;55.60;;;;;;5096612;28;19924;-62
2023/09/29 00:43:54;;;;;;;;;;;23.60;55.60;;;;;;5095940;28;19924;-61
2023/09/29 00:46:21;;;;;;;;;;;23.60;55.60;;;;;;5096402;28;19928;-62
2023/09/29 00:48:49;;;;;;;;;;;23.60;55.60;;;;;;5096394;28;19924;-62
2023/09/29 00:51:20;;;;;;;;;;;23.60;55.50;;;;;;5095618;28;19970;-62
2023/09/29 00:53:48;;;;;;;;;;;23.60;55.40;;;;;;5096464;28;20080;-62
2023/09/29 00:56:15;;;;;;;;;;;23.60;55.40;;;;;;5095824;28;19924;-62
2023/09/29 00:58:42;;;;;;;;;;;23.60;55.50;;;;;;5096059;28;19972;-62
2023/09/29 01:01:12;;;;;;;;;;;23.60;55.40;;;;;;5096002;28;20011;-62
2023/09/29 01:03:39;;;;;;;;;;;23.60;55.40;;;;;;5096187;28;20279;-62
2023/09/29 01:06:08;;;;;;;;;;;23.60;55.40;;;;;;5095811;28;19924;-62
2023/09/29 01:08:36;;;;;;;;;;;23.60;55.50;;;;;;5095570;28;19968;-62
2023/09/29 01:11:05;;;;;;;;;;;23.60;55.60;;;;;;5095660;28;19924;-62
2023/09/29 01:13:33;;;;;;;;;;;23.60;55.40;;;;;;5096102;28;19981;-62
2023/09/29 01:16:00;;;;;;;;;;;23.60;55.40;;;;;;5094680;28;19977;-62
2023/09/29 01:18:28;;;;;;;;;;;23.60;55.40;;;;;;5095889;28;20011;-62
2023/09/29 01:20:56;;;;;;;;;;;23.60;55.50;;;;;;5095300;28;19928;-63
2023/09/29 01:23:24;;;;;;;;;;;23.60;55.40;;;;;;5094862;28;19931;-62
2023/09/29 01:25:51;;;;;;;;;;;23.60;55.60;;;;;;5095697;28;19931;-62
2023/09/29 01:28:18;;;;;;;;;;;23.60;55.40;;;;;;5095522;28;19999;-62
2023/09/29 01:30:45;;;;;;;;;;;23.60;55.40;;;;;;5095499;28;19975;-62
2023/09/29 01:33:12;;;;;;;;;;;23.50;55.40;;;;;;5094232;28;19928;-62
2023/09/29 01:35:43;;;;;;;;;;;23.50;55.40;;;;;;5095445;28;19931;-62
2023/09/29 01:38:12;;;;;;;;;;;23.50;55.40;;;;;;5095133;28;19931;-62
2023/09/29 01:40:39;;;;;;;;;;;23.50;55.40;;;;;;5095190;28;19947;-62
2023/09/29 01:43:06;;;;;;;;;;;23.50;55.40;;;;;;5095462;28;19927;-62
2023/09/29 01:45:34;;;;;;;;;;;23.50;55.40;;;;;;5095009;28;20380;-62
2023/09/29 01:48:01;;;;;;;;;;;23.50;55.40;;;;;;5095576;28;19998;-63
2023/09/29 01:50:32;;;;;;;;;;;23.50;55.40;;;;;;5095150;28;19938;-62
2023/09/29 01:53:00;;;;;;;;;;;23.50;55.40;;;;;;5094958;28;19931;-63
2023/09/29 01:55:27;;;;;;;;;;;23.50;55.40;;;;;;5093787;28;19981;-62
2023/09/29 01:57:54;;;;;;;;;;;23.50;55.40;;;;;;5094641;28;20293;-62
2023/09/29 02:00:24;;;;;;;;;;;23.50;55.40;;;;;;5094776;28;20568;-62
2023/09/29 02:02:53;;;;;;;;;;;23.50;55.40;;;;;;5093931;28;19928;-63
2023/09/29 02:05:20;;;;;;;;;;;23.50;55.40;;;;;;5095273;28;19978;-62
2023/09/29 02:07:49;;;;;;;;;;;23.50;55.40;;;;;;5094529;28;19931;-62
2023/09/29 02:10:20;;;;;;;;;;;23.50;55.40;;;;;;5094795;28;19924;-62
2023/09/29 02:12:49;;;;;;;;;;;23.40;55.30;;;;;;5094686;28;19924;-63
2023/09/29 02:15:16;;;;;;;;;;;23.50;55.40;;;;;;5094492;28;19970;-62
2023/09/29 02:17:44;;;;;;;;;;;23.50;55.40;;;;;;5093943;28;19924;-62
2023/09/29 02:20:15;;;;;;;;;;;23.50;55.40;;;;;;5094494;28;19924;-62
2023/09/29 02:22:42;;;;;;;;;;;23.50;55.30;;;;;;5094140;28;19974;-62
2023/09/29 02:25:15;;;;;;;;;;;23.60;55.30;;;;;;5094623;28;20111;-62
2023/09/29 02:27:42;;;;;;;;;;;23.50;55.20;;;;;;5094820;28;20300;-63
2023/09/29 02:30:10;;;;;;;;;;;23.50;55.20;;;;;;5094385;28;19928;-62
2023/09/29 02:32:38;;;;;;;;;;;23.50;55.20;;;;;;5094477;28;19924;-62
2023/09/29 02:35:06;;;;;;;;;;;23.50;55.20;;;;;;5093741;28;19924;-62
2023/09/29 02:37:33;;;;;;;;;;;23.50;55.20;;;;;;5093779;28;20395;-62
2023/09/29 02:40:04;;;;;;;;;;;23.50;55.20;;;;;;5094269;28;19928;-63
2023/09/29 02:42:31;;;;;;;;;;;23.50;55.20;;;;;;5092176;28;19930;-62
2023/09/29 02:44:59;;;;;;;;;;;23.50;55.20;;;;;;5094243;28;19950;-62
2023/09/29 02:47:26;;;;;;;;;;;23.50;55.80;;;;;;5094023;28;19931;-62
2023/09/29 02:49:53;;;;;;;;;;;23.50;55.30;;;;;;5093918;28;20402;-63
2023/09/29 02:52:20;;;;;;;;;;;23.50;55.90;;;;;;5093466;28;19924;-62
2023/09/29 02:54:49;;;;;;;;;;;23.50;55.40;;;;;;5093853;28;19990;-62
2023/09/29 02:57:17;;;;;;;;;;;23.50;55.40;;;;;;5092160;28;19928;-62
2023/09/29 02:59:44;;;;;;;;;;;23.50;55.40;;;;;;5094287;28;20018;-62
2023/09/29 03:02:12;;;;;;;;;;;23.50;55.40;;;;;;5093968;28;19931;-62
2023/09/29 03:04:40;;;;;;;;;;;23.50;55.40;;;;;;5093484;28;20380;-63
2023/09/29 03:07:09;;;;;;;;;;;23.40;55.30;;;;;;5093228;28;20022;-62
2023/09/29 03:09:37;;;;;;;;;;;23.40;55.30;;;;;;5094209;28;19924;-62
2023/09/29 03:12:03;;;;;;;;;;;23.40;55.30;;;;;;5093685;28;20326;-62
2023/09/29 03:14:30;;;;;;;;;;;23.40;55.30;;;;;;5093576;28;19924;-62
2023/09/29 03:16:58;;;;;;;;;;;23.40;55.30;;;;;;5093886;28;19924;-63
2023/09/29 03:19:25;;;;;;;;;;;23.40;55.30;;;;;;5093723;28;20451;-62
2023/09/29 03:21:53;;;;;;;;;;;23.40;55.30;;;;;;5093416;28;19928;-62
2023/09/29 03:24:21;;;;;;;;;;;23.40;55.30;;;;;;5093411;28;19924;-62
2023/09/29 03:26:49;;;;;;;;;;;23.40;55.30;;;;;;5093265;28;19924;-62
2023/09/29 03:29:17;;;;;;;;;;;23.40;55.30;;;;;;5096453;28;19924;-62
2023/09/29 03:31:46;;;;;;;;;;;23.40;55.30;;;;;;5093960;28;19924;-62
2023/09/29 03:34:14;;;;;;;;;;;23.40;55.30;;;;;;5093346;28;19936;-62
2023/09/29 03:36:41;;;;;;;;;;;23.40;55.30;;;;;;5092960;28;20364;-62
2023/09/29 03:39:09;;;;;;;;;;;23.40;55.30;;;;;;5093383;28;19928;-63
2023/09/29 03:41:36;;;;;;;;;;;23.40;55.30;;;;;;5093690;28;20361;-63
2023/09/29 03:44:03;;;;;;;;;;;23.40;55.30;;;;;;5087199;28;19929;-63
2023/09/29 03:46:31;;;;;;;;;;;23.40;55.30;;;;;;5089430;28;19924;-62
2023/09/29 03:48:58;;;;;;;;;;;23.40;55.20;;;;;;5097655;28;20031;-62
2023/09/29 03:51:26;;;;;;;;;;;23.40;55.20;;;;;;5095842;28;20003;-62
2023/09/29 03:53:54;;;;;;;;;;;23.40;55.20;;;;;;5085089;28;19963;-62
2023/09/29 03:56:23;;;;;;;;;;;23.40;55.10;;;;;;5086601;28;19978;-62
2023/09/29 03:58:53;;;;;;;;;;;23.40;55.10;;;;;;5087836;28;19932;-62
2023/09/29 04:01:21;;;;;;;;;;;23.40;55.10;;;;;;5082673;28;19928;-62
2023/09/29 04:03:48;;;;;;;;;;;23.40;55.10;;;;;;5084712;28;20040;-62
2023/09/29 04:06:16;;;;;;;;;;;23.40;55.20;;;;;;5081180;28;19970;-62
2023/09/29 04:08:43;;;;;;;;;;;23.40;55.20;;;;;;5086894;28;19928;-62
2023/09/29 04:11:10;;;;;;;;;;;23.40;55.20;;;;;;5093321;28;19981;-62
2023/09/29 04:13:37;;;;;;;;;;;23.40;55.20;;;;;;5096993;28;19928;-62
2023/09/29 04:16:05;;;;;;;;;;;23.40;55.20;;;;;;5096508;28;19935;-62
2023/09/29 04:18:32;;;;;;;;;;;23.40;55.30;;;;;;5095879;28;19927;-62
2023/09/29 04:21:01;;;;;;;;;;;23.40;55.30;;;;;;5096850;28;19924;-62
2023/09/29 04:23:28;;;;;;;;;;;23.40;55.30;;;;;;5096779;28;19929;-62
2023/09/29 04:25:55;;;;;;;;;;;23.40;55.30;;;;;;5089604;28;19924;-62
2023/09/29 04:28:22;;;;;;;;;;;23.40;55.30;;;;;;5086466;28;19977;-62
2023/09/29 04:30:49;;;;;;;;;;;23.40;55.30;;;;;;5090419;28;19997;-62
2023/09/29 04:33:18;;;;;;;;;;;23.40;55.30;;;;;;5096457;28;19924;-63
2023/09/29 04:35:45;;;;;;;;;;;23.40;55.20;;;;;;5096135;28;20041;-62
2023/09/29 04:38:12;;;;;;;;;;;23.40;55.10;;;;;;5095500;28;19924;-63
2023/09/29 04:40:39;;;;;;;;;;;23.40;55.00;;;;;;5094463;28;19924;-62
2023/09/29 04:43:07;;;;;;;;;;;23.20;54.90;;;;;;5079292;28;19966;-62
2023/09/29 04:45:34;;;;;;;;;;;23.10;55.10;;;;;;5080364;28;19983;-62
2023/09/29 04:48:01;;;;;;;;;;;22.90;55.30;;;;;;5079849;28;20319;-62
2023/09/29 04:50:29;;;;;;;;;;;22.60;54.80;;;;;;5080049;28;19931;-62
2023/09/29 04:52:57;;;;;;;;;;;22.40;53.70;;;;;;5080962;28;19925;-62
2023/09/29 04:55:24;;;;;;;;;;;22.00;52.30;;;;;;5081405;28;19928;-62
2023/09/29 04:57:54;;;;;;;;;;;21.80;51.70;;;;;;5078512;28;19931;-62
2023/09/29 05:00:21;;;;;;;;;;;21.40;51.50;;;;;;5085520;28;19978;-62
2023/09/29 05:02:48;;;;;;;;;;;21.10;50.70;;;;;;5079869;28;20181;-62
2023/09/29 05:05:15;;;;;;;;;;;20.90;51.00;;;;;;5084947;28;19924;-63
2023/09/29 05:07:43;;;;;;;;;;;20.60;51.70;;;;;;5084482;28;19948;-62
2023/09/29 05:10:13;;;;;;;;;;;20.30;51.80;;;;;;5078773;28;19964;-62
2023/09/29 05:12:41;;;;;;;;;;;20.00;51.00;;;;;;5088469;28;19974;-62
2023/09/29 05:15:08;;;;;;;;;;;19.80;50.70;;;;;;5095246;28;20334;-62
2023/09/29 05:17:35;;;;;;;;;;;19.70;51.90;;;;;;5093797;28;19924;-61
2023/09/29 05:20:17;;;;;;;;;;;19.50;51.60;;;;;;5075813;28;19925;-62
2023/09/29 05:22:44;;;;;;;;;;;19.30;50.80;;;;;;5076844;28;19932;-61
2023/09/29 05:25:11;;;;;;;;;;;19.10;52.40;;;;;;5071425;28;19925;-61
2023/09/29 05:27:38;;;;;;;;;;;19.00;52.60;;;;;;5090035;28;20474;-61
2023/09/29 05:30:06;;;;;;;;;;;18.90;51.60;;;;;;5072139;28;19925;-60
2023/09/29 05:32:33;;;;;;;;;;;18.80;53.90;;;;;;5075297;28;19924;-62
2023/09/29 05:35:01;;;;;;;;;;;18.70;52.80;;;;;;5076670;28;20027;-62
2023/09/29 05:37:30;;;;;;;;;;;18.70;52.40;;;;;;5073616;28;19977;-62
2023/09/29 05:40:02;;;;;;;;;;;18.70;52.90;;;;;;5071002;28;19932;-62
2023/09/29 05:42:30;;;;;;;;;;;18.60;52.10;;;;;;5077781;28;19933;-61
2023/09/29 05:45:17;;;;;;;;;;;18.50;53.20;;;;;;5073402;28;19977;-61
2023/09/29 05:47:47;;;;;;;;;;;18.50;53.50;;;;;;5074771;28;20015;-61
2023/09/29 05:50:14;;;;;;;;;;;18.50;52.80;;;;;;5071884;28;19936;-61
2023/09/29 05:52:47;;;;;;;;;;;18.40;53.00;;;;;;5079355;28;20403;-62
2023/09/29 05:55:34;;;;;;;;;;;18.40;54.30;;;;;;5074487;28;19928;-63
2023/09/29 05:58:01;;;;;;;;;;;18.30;53.30;;;;;;5075387;28;19924;-62
2023/09/29 06:00:30;;;;;;;;;;;18.30;53.80;;;;;;5080399;28;19924;-62
2023/09/29 06:03:01;;;;;;;;;;;18.30;54.20;;;;;;5075201;28;19932;-62
2023/09/29 06:05:29;;;;;;;;;;;18.30;53.80;;;;;;5074000;28;19963;-62
2023/09/29 06:07:56;;;;;;;;;;;18.20;53.00;;;;;;5074877;28;19932;-62
2023/09/29 06:10:25;;;;;;;;;;;18.20;54.50;;;;;;5073603;28;20546;-62
2023/09/29 06:12:52;;;;;;;;;;;18.20;54.20;;;;;;5077828;28;19933;-61
2023/09/29 06:15:20;;;;;;;;;;;18.20;53.90;;;;;;5075843;28;19943;-61
2023/09/29 06:17:47;;;;;;;;;;;18.20;54.80;;;;;;5079134;28;20289;-63
2023/09/29 06:20:14;;;;;;;;;;;18.20;53.70;;;;;;5073893;28;19932;-61
2023/09/29 06:22:42;;;;;;;;;;;18.20;52.90;;;;;;5086810;28;19924;-62
2023/09/29 06:25:09;;;;;;;;;;;18.20;52.70;;;;;;5072199;28;20006;-63
2023/09/29 06:27:37;;;;;;;;;;;18.30;53.80;;;;;;5073250;28;20003;-62
2023/09/29 06:30:04;;;;;;;;;;;18.20;54.20;;;;;;5067457;28;19928;-62
2023/09/29 06:32:31;;;;;;;;;;;18.30;52.50;;;;;;5072187;28;20034;-63
2023/09/29 06:34:59;;;;;;;;;;;18.20;53.70;;;;;;5072175;28;20350;-63
2023/09/29 06:37:26;;;;;;;;;;;18.20;52.60;;;;;;5074691;28;19936;-64
2023/09/29 06:39:53;;;;;;;;;;;18.20;55.00;;;;;;5075789;28;19924;-62
2023/09/29 06:42:21;;;;;;;;;;;18.30;53.70;;;;;;5076600;28;20010;-62
2023/09/29 06:44:48;;;;;;;;;;;18.30;52.70;;;;;;5075788;28;19924;-62
2023/09/29 06:47:15;;;;;;;;;;;18.30;52.90;;;;;;5069605;28;19980;-62
2023/09/29 06:49:42;;;;;;;;;;;18.20;53.20;;;;;;5070801;28;19974;-61
2023/09/29 06:52:10;;;;;;;;;;;18.30;53.80;;;;;;5069377;28;19996;-61
2023/09/29 06:54:37;;;;;;;;;;;18.30;53.60;;;;;;5070695;28;19931;-62
2023/09/29 06:57:04;;;;;;;;;;;18.30;52.90;;;;;;5072264;28;19924;-62
2023/09/29 06:59:31;;;;;;;;;;;18.40;53.00;;;;;;5076933;28;19924;-63
2023/09/29 07:01:58;;;;;;;;;;;18.40;53.80;;;;;;5076722;28;19977;-62
2023/09/29 07:04:26;;;;;;;;;;;18.40;52.70;;;;;;5075727;28;19935;-63
2023/09/29 07:06:53;;;;;;;;;;;18.40;53.00;;;;;;5073515;28;19969;-68
2023/09/29 07:09:20;;;;;;;;;;;18.40;53.40;;;;;;5072981;28;19928;-64
2023/09/29 07:11:47;;;;;;;;;;;18.40;53.80;;;;;;5081975;28;20433;-64
2023/09/29 07:14:14;;;;;;;;;;;18.40;53.40;;;;;;5080163;28;19928;-63
2023/09/29 07:16:43;;;;;;;;;;;18.40;52.90;;;;;;5074695;28;20346;-66
2023/09/29 07:19:13;;;;;;;;;;;18.40;51.80;;;;;;5070535;28;19934;-70
2023/09/29 07:21:41;;;;;;;;;;;18.30;52.90;;;;;;5075441;28;19954;-64
2023/09/29 07:24:08;;;;;;;;;;;18.30;54.00;;;;;;5072875;28;19924;-64
2023/09/29 07:26:35;;;;;;;;;;;18.40;53.00;;;;;;5071963;28;19950;-65
2023/09/29 07:29:04;;;;;;;;;;;18.30;52.70;;;;;;5073372;28;20381;-63
2023/09/29 07:31:35;;;;;;;;;;;18.30;52.10;;;;;;5072631;28;19929;-62
2023/09/29 07:34:05;;;;;;;;;;;18.30;53.50;;;;;;5075230;28;20428;-62
2023/09/29 07:36:33;;;;;;;;;;;18.30;53.00;;;;;;5073862;28;19929;-63
2023/09/29 07:39:00;;;;;;;;;;;18.30;52.60;;;;;;5073997;28;19982;-61
2023/09/29 07:41:27;;;;;;;;;;;18.30;53.00;;;;;;5075999;28;19931;-62
2023/09/29 07:43:54;;;;;;;;;;;18.30;53.10;;;;;;5079560;28;19943;-62
2023/09/29 07:46:22;;;;;;;;;;;18.30;53.20;;;;;;5074349;28;19932;-63
2023/09/29 07:48:49;;;;;;;;;;;18.30;56.30;;;;;;5074500;28;20386;-62
2023/09/29 07:51:17;;;;;;;;;;;18.30;56.50;;;;;;5079294;28;20387;-61
2023/09/29 07:53:44;;;;;;;;;;;18.30;57.10;;;;;;5073382;28;19928;-62
2023/09/29 07:56:12;;;;;;;;;;;18.30;57.40;;;;;;5077167;28;19928;-63
2023/09/29 07:58:39;;;;;;;;;;;18.30;56.70;;;;;;5072238;28;19928;-62
2023/09/29 08:01:06;;;;;;;;;;;18.20;57.70;;;;;;5068714;28;19935;-62
2023/09/29 08:03:34;;;;;;;;;;;18.20;57.00;;;;;;5074429;28;19932;-63
2023/09/29 08:06:01;;;;;;;;;;;18.20;57.50;;;;;;5072135;28;19932;-62
2023/09/29 08:08:28;;;;;;;;;;;18.20;57.80;;;;;;5077194;28;20010;-63
2023/09/29 08:10:56;;;;;;;;;;;18.20;55.50;;;;;;5075507;28;19943;-62
2023/09/29 08:13:23;;;;;;;;;;;18.20;56.40;;;;;;5073329;28;19928;-61
2023/09/29 08:15:51;;;;;;;;;;;18.20;55.00;;;;;;5058052;28;19924;-61
2023/09/29 08:18:19;;;;;;;;;;;18.20;54.20;;;;;;5075666;28;20293;-61
2023/09/29 08:20:50;;;;;;;;;;;18.20;55.00;;;;;;5074392;28;19925;-64
2023/09/29 08:23:17;;;;;;;;;;;18.30;55.10;;;;;;5081189;28;19939;-63
2023/09/29 08:25:45;;;;;;;;;;;18.30;57.10;;;;;;5077503;28;20437;-64
2023/09/29 08:28:13;;;;;;;;;;;18.30;56.20;;;;;;5075315;28;19932;-62
2023/09/29 08:30:40;;;;;;;;;;;18.30;57.20;;;;;;5074180;28;19956;-63
2023/09/29 08:33:08;;;;;;;;;;;18.40;56.20;;;;;;5075552;28;19928;-63
2023/09/29 08:35:48;;;;;;;;;;;18.40;57.40;;;;;;5074373;28;19932;-64
2023/09/29 08:38:15;;;;;;;;;;;18.40;57.70;;;;;;5078544;28;20011;-63
2023/09/29 08:40:46;;;;;;;;;;;18.40;56.20;;;;;;5078577;28;19931;-63
2023/09/29 08:43:15;;;;;;;;;;;18.50;56.50;;;;;;5072820;28;19967;-64
2023/09/29 08:45:42;;;;;;;;;;;18.50;56.30;;;;;;5069931;28;19969;-62
2023/09/29 08:48:11;;;;;;;;;;;18.50;57.20;;;;;;5080462;28;20626;-62
2023/09/29 08:50:43;;;;;;;;;;;18.50;55.60;;;;;;5076469;28;19939;-63
2023/09/29 08:53:10;;;;;;;;;;;18.50;56.20;;;;;;5074172;28;20346;-60
2023/09/29 08:55:38;;;;;;;;;;;18.40;57.10;;;;;;5066477;28;19939;-62
2023/09/29 08:58:07;;;;;;;;;;;18.40;56.90;;;;;;5076228;28;20011;-61
2023/09/29 09:00:34;;;;;;;;;;;18.40;57.20;;;;;;5064921;28;19924;-61
2023/09/29 09:03:02;;;;;;;;;;;18.40;57.70;;;;;;5071823;28;21201;-62
2023/09/29 09:05:30;;;;;;;;;;;18.40;56.50;;;;;;5076442;28;19942;-62
2023/09/29 09:07:59;;;;;;;;;;;18.40;57.30;;;;;;5080133;28;20018;-61
2023/09/29 09:10:34;;;;;;;;;;;18.40;56.80;;;;;;5063920;28;19933;-61
2023/09/29 09:13:02;;;;;;;;;;;18.40;56.30;;;;;;5063519;28;19959;-62
2023/09/29 09:15:30;;;;;;;;;;;18.50;56.60;;;;;;5064851;28;19947;-60
2023/09/29 09:17:58;;;;;;;;;;;18.50;56.90;;;;;;5067895;28;20411;-60
2023/09/29 09:20:26;;;;;;;;;;;18.50;57.90;;;;;;5065927;28;19935;-61
2023/09/29 09:22:58;;;;;;;;;;;18.50;57.60;;;;;;5067230;28;20281;-60
2023/09/29 09:25:35;;;;;;;;;;;18.50;57.70;;;;;;5065793;28;19967;-61
2023/09/29 09:28:04;;;;;;;;;;;18.50;58.30;;;;;;5064172;28;19950;-61
2023/09/29 09:30:36;;;;;;;;;;;18.50;59.50;;;;;;5067715;28;20348;-61
2023/09/29 09:33:05;;;;;;;;;;;18.60;58.90;;;;;;5067437;28;20382;-63
2023/09/29 09:35:33;;;;;;;;;;;18.60;58.60;;;;;;5064485;28;19939;-60
2023/09/29 09:38:01;;;;;;;;;;;18.60;59.70;;;;;;5068026;28;19974;-62
2023/09/29 09:40:28;;;;;;;;;;;18.60;58.80;;;;;;5076056;28;20343;-63
2023/09/29 09:43:03;;;;;;;;;;;18.60;59.80;;;;;;5072117;28;19928;-61
2023/09/29 09:45:37;;;;;;;;;;;18.60;59.50;;;;;;5075974;28;19924;-61
2023/09/29 09:48:09;;;;;;;;;;;18.70;58.60;;;;;;5074329;28;19931;-61
2023/09/29 09:50:41;;;;;;;;;;;18.70;58.10;;;;;;5077276;28;19929;-61
2023/09/29 09:53:11;;;;;;;;;;;18.70;58.50;;;;;;5076727;28;20300;-62
2023/09/29 09:55:45;;;;;;;;;;;18.70;57.70;;;;;;5075948;28;19928;-62
2023/09/29 09:58:16;;;;;;;;;;;18.70;57.90;;;;;;5078233;28;19925;-62
2023/09/29 10:00:46;;;;;;;;;;;18.70;58.10;;;;;;5072638;28;20331;-63
2023/09/29 10:03:16;;;;;;;;;;;18.70;57.40;;;;;;5075873;28;19932;-63
2023/09/29 10:05:51;;;;;;;;;;;18.70;57.80;;;;;;5078300;28;19947;-64
2023/09/29 10:08:24;;;;;;;;;;;18.60;57.70;;;;;;5077912;28;19971;-64
2023/09/29 10:10:51;;;;;;;;;;;18.60;57.90;;;;;;5074883;28;19924;-64
2023/09/29 10:13:18;;;;;;;;;;;18.60;58.50;;;;;;5090513;28;19936;-64
2023/09/29 10:16:05;;;;;;;;;;;18.60;58.10;;;;;;5082806;28;19932;-63
2023/09/29 10:18:33;;;;;;;;;;;18.60;58.40;;;;;;5074008;28;20018;-63
2023/09/29 10:21:07;;;;;;;;;;;18.60;58.60;;;;;;5074892;28;20404;-63
2023/09/29 10:23:45;;;;;;;;;;;18.60;58.40;;;;;;5074975;28;19938;-65
2023/09/29 10:26:13;;;;;;;;;;;18.60;56.80;;;;;;5081075;28;19936;-64
2023/09/29 10:28:41;;;;;;;;;;;18.60;57.20;;;;;;5078571;28;19931;-64
2023/09/29 10:31:09;;;;;;;;;;;18.60;57.60;;;;;;5076306;28;19932;-64
2023/09/29 10:33:53;;;;;;;;;;;18.60;58.00;;;;;;5076974;28;19936;-63
2023/09/29 10:36:25;;;;;;;;;;;18.60;57.70;;;;;;5079660;28;19924;-63
2023/09/29 10:38:54;;;;;;;;;;;18.60;56.70;;;;;;5078019;28;19930;-63
2023/09/29 10:41:23;;;;;;;;;;;18.70;57.00;;;;;;5074348;28;19939;-64
2023/09/29 10:44:03;;;;;;;;;;;18.70;57.80;;;;;;5072760;28;20385;-65
2023/09/29 10:46:31;;;;;;;;;;;18.70;59.40;;;;;;5076398;28;20023;-63
2023/09/29 10:48:58;;;;;;;;;;;18.70;58.60;;;;;;5075599;28;19935;-63
2023/09/29 10:51:27;;;;;;;;;;;18.70;58.10;;;;;;5080226;28;19929;-64
2023/09/29 10:53:56;;;;;;;;;;;18.70;58.50;;;;;;5074518;28;20260;-63
2023/09/29 10:56:25;;;;;;;;;;;18.70;58.60;;;;;;5074756;28;19925;-63
2023/09/29 10:58:53;;;;;;;;;;;18.70;58.10;;;;;;5073692;28;19975;-64
2023/09/29 11:01:31;;;;;;;;;;;18.70;57.00;;;;;;5078841;28;19928;-64
2023/09/29 11:03:58;;;;;;;;;;;18.70;57.80;;;;;;5071178;28;20829;-63
2023/09/29 11:06:26;;;;;;;;;;;18.70;57.90;;;;;;5073428;28;20388;-63
2023/09/29 11:08:55;;;;;;;;;;;18.70;58.40;;;;;;5071178;28;20040;-62
2023/09/29 11:11:25;;;;;;;;;;;18.70;58.00;;;;;;5076550;28;19927;-64
2023/09/29 11:13:53;;;;;;;;;;;18.70;57.90;;;;;;5076265;28;20334;-63
2023/09/29 11:16:25;;;;;;;;;;;18.70;57.70;;;;;;5076688;28;21256;-64
2023/09/29 11:18:56;;;;;;;;;;;18.70;58.10;;;;;;5074712;28;19935;-65
2023/09/29 11:21:36;;;;;;;;;;;18.80;58.40;;;;;;5077120;28;19928;-64
2023/09/29 11:24:07;;;;;;;;;;;18.80;58.20;;;;;;5074765;28;19936;-63
2023/09/29 11:26:37;;;;;;;;;;;18.90;58.40;;;;;;5072308;28;19974;-64
2023/09/29 11:29:05;;;;;;;;;;;18.90;58.30;;;;;;5074990;28;19929;-64
2023/09/29 11:31:32;;;;;;;;;;;18.90;58.10;;;;;;5075186;28;20399;-64
2023/09/29 11:34:00;;;;;;;;;;;18.90;58.10;;;;;;5081457;28;20000;-65
2023/09/29 11:36:29;;;;;;;;;;;19.00;58.40;;;;;;5074388;28;20862;-65
2023/09/29 11:38:59;;;;;;;;;;;19.00;58.20;;;;;;5072617;28;19932;-65
2023/09/29 11:41:26;;;;;;;;;;;19.00;58.10;;;;;;5074961;28;20049;-61
2023/09/29 11:43:53;;;;;;;;;;;19.00;58.50;;;;;;5064977;28;20373;-61
2023/09/29 11:46:20;;;;;;;;;;;19.10;58.50;;;;;;5070801;28;19924;-62
2023/09/29 11:48:47;;;;;;;;;;;19.10;58.60;;;;;;5076517;28;19933;-61
2023/09/29 11:51:15;;;;;;;;;;;19.10;58.70;;;;;;5077479;28;20006;-62
2023/09/29 11:53:43;;;;;;;;;;;19.10;58.60;;;;;;5076809;28;20372;-63
2023/09/29 11:56:11;;;;;;;;;;;19.10;58.80;;;;;;5070620;28;20298;-65
2023/09/29 11:58:39;;;;;;;;;;;19.10;58.70;;;;;;5073658;28;19981;-62
2023/09/29 12:01:08;;;;;;;;;;;19.10;58.60;;;;;;5074417;28;19924;-61
2023/09/29 12:03:36;;;;;;;;;;;19.20;58.80;;;;;;5071365;28;19947;-62
2023/09/29 12:06:03;;;;;;;;;;;19.20;58.40;;;;;;5088904;28;20010;-61
2023/09/29 12:08:30;;;;;;;;;;;19.30;58.80;;;;;;5091334;28;20301;-63
2023/09/29 12:10:58;;;;;;;;;;;19.30;58.60;;;;;;5090093;28;19958;-63
2023/09/29 12:13:26;;;;;;;;;;;19.30;58.70;;;;;;5093926;28;20376;-64
2023/09/29 12:15:54;;;;;;;;;;;19.30;58.40;;;;;;5095430;28;19928;-63
2023/09/29 12:18:23;;;;;;;;;;;19.30;58.60;;;;;;5092848;28;19973;-63
2023/09/29 12:20:52;;;;;;;;;;;19.30;58.50;;;;;;5094713;28;20015;-63
2023/09/29 12:23:19;;;;;;;;;;;19.40;58.30;;;;;;5092903;28;20384;-63
2023/09/29 12:25:47;;;;;;;;;;;19.40;58.00;;;;;;5095346;28;20035;-64
2023/09/29 12:28:14;;;;;;;;;;;19.40;58.40;;;;;;5090716;28;19978;-63
2023/09/29 12:30:43;;;;;;;;;;;19.40;58.10;;;;;;5087819;28;19966;-63
2023/09/29 12:33:10;;;;;;;;;;;19.40;58.10;;;;;;5079402;28;20389;-63
2023/09/29 12:35:38;;;;;;;;;;;19.40;58.20;;;;;;5081227;28;20613;-63
2023/09/29 12:38:05;;;;;;;;;;;19.40;58.20;;;;;;5078286;28;19924;-63
2023/09/29 12:40:33;;;;;;;;;;;19.40;58.10;;;;;;5076749;28;19924;-63
2023/09/29 12:43:01;;;;;;;;;;;19.40;58.10;;;;;;5077154;28;19970;-63
2023/09/29 12:45:28;;;;;;;;;;;19.40;58.30;;;;;;5094750;28;19928;-64
2023/09/29 12:47:56;;;;;;;;;;;19.40;58.30;;;;;;5084226;28;20498;-63
2023/09/29 12:50:24;;;;;;;;;;;19.40;58.50;;;;;;5076378;28;19932;-63
2023/09/29 12:52:52;;;;;;;;;;;19.30;58.50;;;;;;5076865;28;19931;-63
2023/09/29 12:55:19;;;;;;;;;;;19.30;58.70;;;;;;5083333;28;19982;-63
2023/09/29 12:57:47;;;;;;;;;;;19.30;58.60;;;;;;5081895;28;19951;-63
2023/09/29 13:00:18;;;;;;;;;;;19.40;58.50;;;;;;5081272;28;19924;-63
2023/09/29 13:02:47;;;;;;;;;;;19.40;58.70;;;;;;5080963;28;19951;-61
2023/09/29 13:05:14;;;;;;;;;;;19.40;58.50;;;;;;5075494;28;19924;-62
2023/09/29 13:07:41;;;;;;;;;;;19.30;58.40;;;;;;5074253;28;20025;-62
2023/09/29 13:10:09;;;;;;;;;;;19.30;58.90;;;;;;5075042;28;19988;-62
2023/09/29 13:12:36;;;;;;;;;;;19.30;58.70;;;;;;5075555;28;19975;-62
2023/09/29 13:15:05;;;;;;;;;;;19.30;58.70;;;;;;5075046;28;19929;-62
2023/09/29 13:17:32;;;;;;;;;;;19.30;58.80;;;;;;5074305;28;20026;-62
2023/09/29 13:19:59;;;;;;;;;;;19.20;58.60;;;;;;5073997;28;19970;-62
2023/09/29 13:22:27;;;;;;;;;;;19.20;58.50;;;;;;5074780;28;19951;-62
2023/09/29 13:24:54;;;;;;;;;;;19.20;58.40;;;;;;5092411;28;19969;-61
2023/09/29 13:27:21;;;;;;;;;;;19.20;58.50;;;;;;5095233;28;20288;-61
2023/09/29 13:29:50;;;;;;;;;;;19.20;59.10;;;;;;5095413;28;20285;-62
2023/09/29 13:32:17;;;;;;;;;;;19.20;58.30;;;;;;5094532;28;19925;-62
2023/09/29 13:34:44;;;;;;;;;;;19.20;58.40;;;;;;5095144;28;19924;-62
2023/09/29 13:37:16;;;;;;;;;;;19.10;58.30;;;;;;5095025;28;19982;-62
2023/09/29 13:39:44;;;;;;;;;;;19.10;58.50;;;;;;5094550;28;19931;-62
2023/09/29 13:42:12;;;;;;;;;;;19.00;58.60;;;;;;5094670;28;20020;-62
2023/09/29 13:44:39;;;;;;;;;;;19.00;58.70;;;;;;5094651;28;19932;-62
2023/09/29 13:47:06;;;;;;;;;;;19.00;58.70;;;;;;5094922;28;20288;-62
2023/09/29 13:49:34;;;;;;;;;;;19.00;58.40;;;;;;5094537;28;19924;-62
2023/09/29 13:52:01;;;;;;;;;;;19.00;58.50;;;;;;5094377;28;19928;-62
2023/09/29 13:54:29;;;;;;;;;;;19.00;58.40;;;;;;5093868;28;19971;-62
2023/09/29 13:56:57;;;;;;;;;;;19.00;58.60;;;;;;5094977;28;19977;-62
2023/09/29 13:59:25;;;;;;;;;;;19.00;58.40;;;;;;5093363;28;19931;-62
2023/09/29 14:01:52;;;;;;;;;;;19.00;58.40;;;;;;5094084;28;19970;-62
2023/09/29 14:04:19;;;;;;;;;;;19.00;59.00;;;;;;5094434;28;20011;-62
2023/09/29 14:06:47;;;;;;;;;;;19.10;63.80;;;;;;5094287;28;19924;-62
2023/09/29 14:09:14;;;;;;;;;;;19.30;71.10;;;;;;5094804;28;19966;-62
2023/09/29 14:11:43;;;;;;;;;;;19.60;73.60;;;;;;5093695;28;19930;-63
2023/09/29 14:14:11;;;;;;;;;;;19.90;75.00;;;;;;5093992;28;19930;-62
2023/09/29 14:16:38;;;;;;;;;;;20.20;75.50;;;;;;5094725;28;19967;-62
2023/09/29 14:19:05;;;;;;;;;;;20.50;75.40;;;;;;5093186;28;19924;-62
2023/09/29 14:21:33;;;;;;;;;;;20.70;75.20;;;;;;5092521;28;20292;-62
2023/09/29 14:24:00;;;;;;;;;;;20.90;74.70;;;;;;5093870;28;19924;-62